sensor_id;sensor_type;location;lat;lon;timestamp;pressure;altitude;pressure_sealevel;temperature;humidity
4705;BME280;2366;51.332;6.610;2024-02-28T00:01:13;101880.19;;;5.94;66.86
4705;BME280;2366;51.332;6.610;2024-02-28T00:03:38;101873.22;;;5.91;66.59
4705;BME280;2366;51.332;6.610;2024-02-28T00:06:03;101880.25;;;5.91;67.07
4705;BME280;2366;51.332;6.610;2024-02-28T00:08:29;101872.38;;;5.91;66.73
4705;BME280;2366;51.332;6.610;2024-02-28T00:10:54;101879.47;;;5.87;66.96
4705;BME280;2366;51.332;6.610;2024-02-28T00:13:21;101887.31;;;5.89;66.57
4705;BME280;2366;51.332;6.610;2024-02-28T00:15:48;101865.53;;;5.82;67.62
4705;BME280;2366;51.332;6.610;2024-02-28T00:18:13;101859.09;;;5.97;66.99
4705;BME280;2366;51.332;6.610;2024-02-28T00:20:39;101860.91;;;5.92;66.72
4705;BME280;2366;51.332;6.610;2024-02-28T00:23:04;101870.72;;;5.85;66.97
4705;BME280;2366;51.332;6.610;2024-02-28T00:25:30;101874.31;;;5.83;66.89
4705;BME280;2366;51.332;6.610;2024-02-28T00:27:55;101866.63;;;5.73;67.61
4705;BME280;2366;51.332;6.610;2024-02-28T00:30:20;101871.56;;;5.87;67.71
4705;BME280;2366;51.332;6.610;2024-02-28T00:32:46;101877.75;;;5.85;66.90
4705;BME280;2366;51.332;6.610;2024-02-28T00:35:11;101870.13;;;5.72;66.28
4705;BME280;2366;51.332;6.610;2024-02-28T00:37:37;101874.72;;;5.64;66.72
4705;BME280;2366;51.332;6.610;2024-02-28T00:40:02;101872.22;;;5.60;66.68
4705;BME280;2366;51.332;6.610;2024-02-28T00:42:29;101871.38;;;5.58;66.28
4705;BME280;2366;51.332;6.610;2024-02-28T00:44:54;101865.31;;;5.54;66.47
4705;BME280;2366;51.332;6.610;2024-02-28T00:47:20;101869.75;;;5.52;67.73
4705;BME280;2366;51.332;6.610;2024-02-28T00:49:45;101870.50;;;5.57;67.14
4705;BME280;2366;51.332;6.610;2024-02-28T00:52:10;101873.19;;;5.54;66.62
4705;BME280;2366;51.332;6.610;2024-02-28T00:54:36;101887.41;;;5.45;66.42
4705;BME280;2366;51.332;6.610;2024-02-28T00:57:01;101885.00;;;5.34;66.65
4705;BME280;2366;51.332;6.610;2024-02-28T00:59:26;101890.34;;;5.31;66.55
4705;BME280;2366;51.332;6.610;2024-02-28T01:01:52;101881.56;;;5.32;66.92
4705;BME280;2366;51.332;6.610;2024-02-28T01:04:17;101885.00;;;5.36;67.09
4705;BME280;2366;51.332;6.610;2024-02-28T01:06:43;101885.84;;;5.37;66.79
4705;BME280;2366;51.332;6.610;2024-02-28T01:09:08;101891.09;;;5.38;66.78
4705;BME280;2366;51.332;6.610;2024-02-28T01:11:33;101884.94;;;5.38;66.57
4705;BME280;2366;51.332;6.610;2024-02-28T01:13:59;101879.84;;;5.31;66.53
4705;BME280;2366;51.332;6.610;2024-02-28T01:16:24;101891.19;;;5.33;66.72
4705;BME280;2366;51.332;6.610;2024-02-28T01:18:51;101892.00;;;5.35;66.59
4705;BME280;2366;51.332;6.610;2024-02-28T01:21:16;101883.28;;;5.33;66.58
4705;BME280;2366;51.332;6.610;2024-02-28T01:23:41;101885.84;;;5.37;66.57
4705;BME280;2366;51.332;6.610;2024-02-28T01:26:07;101878.94;;;5.31;66.54
4705;BME280;2366;51.332;6.610;2024-02-28T01:28:32;101878.03;;;5.33;66.86
4705;BME280;2366;51.332;6.610;2024-02-28T01:30:58;101875.41;;;5.33;66.61
4705;BME280;2366;51.332;6.610;2024-02-28T01:33:25;101875.34;;;5.37;67.90
4705;BME280;2366;51.332;6.610;2024-02-28T01:35:50;101872.56;;;5.43;68.75
4705;BME280;2366;51.332;6.610;2024-02-28T01:38:16;101869.97;;;5.41;69.08
4705;BME280;2366;51.332;6.610;2024-02-28T01:40:45;101873.34;;;5.46;69.65
4705;BME280;2366;51.332;6.610;2024-02-28T01:43:11;101865.28;;;5.55;69.11
4705;BME280;2366;51.332;6.610;2024-02-28T01:45:37;101873.91;;;5.62;69.01
4705;BME280;2366;51.332;6.610;2024-02-28T01:48:02;101870.22;;;5.69;68.78
4705;BME280;2366;51.332;6.610;2024-02-28T01:50:31;101867.47;;;5.74;68.59
4705;BME280;2366;51.332;6.610;2024-02-28T01:52:57;101867.25;;;5.83;68.63
4705;BME280;2366;51.332;6.610;2024-02-28T01:55:22;101872.53;;;5.83;68.29
4705;BME280;2366;51.332;6.610;2024-02-28T01:57:48;101865.66;;;5.78;67.91
4705;BME280;2366;51.332;6.610;2024-02-28T02:00:15;101864.84;;;5.74;68.12
4705;BME280;2366;51.332;6.610;2024-02-28T02:02:42;101864.22;;;5.64;69.40
4705;BME280;2366;51.332;6.610;2024-02-28T02:05:09;101856.97;;;5.72;69.08
4705;BME280;2366;51.332;6.610;2024-02-28T02:07:34;101856.00;;;5.76;68.91
4705;BME280;2366;51.332;6.610;2024-02-28T02:10:00;101860.63;;;5.67;68.71
4705;BME280;2366;51.332;6.610;2024-02-28T02:12:26;101856.19;;;5.70;69.04
4705;BME280;2366;51.332;6.610;2024-02-28T02:14:51;101857.81;;;5.74;68.69
4705;BME280;2366;51.332;6.610;2024-02-28T02:17:17;101863.16;;;5.71;68.56
4705;BME280;2366;51.332;6.610;2024-02-28T02:19:42;101863.16;;;5.71;69.65
4705;BME280;2366;51.332;6.610;2024-02-28T02:22:08;101864.69;;;5.82;69.43
4705;BME280;2366;51.332;6.610;2024-02-28T02:24:34;101862.59;;;5.96;69.36
4705;BME280;2366;51.332;6.610;2024-02-28T02:27:01;101865.25;;;5.96;69.19
4705;BME280;2366;51.332;6.610;2024-02-28T02:29:27;101857.84;;;6.12;69.56
4705;BME280;2366;51.332;6.610;2024-02-28T02:31:53;101860.34;;;6.18;68.92
4705;BME280;2366;51.332;6.610;2024-02-28T02:34:19;101865.50;;;6.23;68.90
4705;BME280;2366;51.332;6.610;2024-02-28T02:36:45;101877.59;;;6.30;69.28
4705;BME280;2366;51.332;6.610;2024-02-28T02:39:10;101873.69;;;6.46;68.78
4705;BME280;2366;51.332;6.610;2024-02-28T02:41:36;101869.03;;;6.56;69.15
4705;BME280;2366;51.332;6.610;2024-02-28T02:44:01;101874.38;;;6.53;69.06
4705;BME280;2366;51.332;6.610;2024-02-28T02:46:27;101883.97;;;6.55;69.05
4705;BME280;2366;51.332;6.610;2024-02-28T02:48:52;101879.38;;;6.64;69.39
4705;BME280;2366;51.332;6.610;2024-02-28T02:51:20;101881.06;;;6.66;69.71
4705;BME280;2366;51.332;6.610;2024-02-28T02:53:46;101889.63;;;6.74;69.11
4705;BME280;2366;51.332;6.610;2024-02-28T02:56:11;101887.00;;;6.74;68.40
4705;BME280;2366;51.332;6.610;2024-02-28T02:58:37;101893.84;;;6.80;69.19
4705;BME280;2366;51.332;6.610;2024-02-28T03:01:02;101899.06;;;6.83;69.04
4705;BME280;2366;51.332;6.610;2024-02-28T03:03:27;101898.13;;;6.86;69.11
4705;BME280;2366;51.332;6.610;2024-02-28T03:05:53;101899.00;;;6.85;68.86
4705;BME280;2366;51.332;6.610;2024-02-28T03:08:18;101898.88;;;6.89;69.03
4705;BME280;2366;51.332;6.610;2024-02-28T03:10:44;101887.69;;;6.81;68.91
4705;BME280;2366;51.332;6.610;2024-02-28T03:13:09;101899.94;;;6.84;69.14
4705;BME280;2366;51.332;6.610;2024-02-28T03:15:34;101906.97;;;6.83;69.21
4705;BME280;2366;51.332;6.610;2024-02-28T03:18:00;101904.16;;;6.89;68.80
4705;BME280;2366;51.332;6.610;2024-02-28T03:20:25;101895.41;;;6.87;69.43
4705;BME280;2366;51.332;6.610;2024-02-28T03:22:51;101895.75;;;6.75;69.59
4705;BME280;2366;51.332;6.610;2024-02-28T03:25:16;101894.47;;;6.57;70.30
4705;BME280;2366;51.332;6.610;2024-02-28T03:27:42;101887.94;;;6.37;71.03
4705;BME280;2366;51.332;6.610;2024-02-28T03:30:08;101901.44;;;6.60;70.42
4705;BME280;2366;51.332;6.610;2024-02-28T03:32:33;101903.75;;;6.72;70.40
4705;BME280;2366;51.332;6.610;2024-02-28T03:34:58;101897.47;;;6.76;70.13
4705;BME280;2366;51.332;6.610;2024-02-28T03:37:24;101899.84;;;6.87;69.90
4705;BME280;2366;51.332;6.610;2024-02-28T03:39:49;101903.41;;;6.84;69.88
4705;BME280;2366;51.332;6.610;2024-02-28T03:42:15;101911.91;;;6.95;69.96
4705;BME280;2366;51.332;6.610;2024-02-28T03:44:40;101905.81;;;6.93;70.52
4705;BME280;2366;51.332;6.610;2024-02-28T03:47:05;101926.00;;;6.94;69.71
4705;BME280;2366;51.332;6.610;2024-02-28T03:49:31;101922.41;;;6.97;70.53
4705;BME280;2366;51.332;6.610;2024-02-28T03:51:56;101925.78;;;7.02;69.76
4705;BME280;2366;51.332;6.610;2024-02-28T03:54:21;101935.19;;;7.12;70.19
4705;BME280;2366;51.332;6.610;2024-02-28T03:56:47;101928.13;;;7.13;70.20
4705;BME280;2366;51.332;6.610;2024-02-28T03:59:12;101926.56;;;7.06;69.70
4705;BME280;2366;51.332;6.610;2024-02-28T04:01:38;101918.09;;;6.94;70.04
4705;BME280;2366;51.332;6.610;2024-02-28T04:04:03;101923.53;;;6.88;70.52
4705;BME280;2366;51.332;6.610;2024-02-28T04:06:29;101925.06;;;6.97;70.83
4705;BME280;2366;51.332;6.610;2024-02-28T04:08:54;101931.13;;;7.01;70.32
4705;BME280;2366;51.332;6.610;2024-02-28T04:11:20;101925.13;;;6.94;70.26
4705;BME280;2366;51.332;6.610;2024-02-28T04:13:45;101919.84;;;6.94;70.40
4705;BME280;2366;51.332;6.610;2024-02-28T04:16:11;101911.84;;;6.98;70.86
4705;BME280;2366;51.332;6.610;2024-02-28T04:18:36;101916.81;;;7.09;70.47
4705;BME280;2366;51.332;6.610;2024-02-28T04:21:02;101917.56;;;7.13;69.56
4705;BME280;2366;51.332;6.610;2024-02-28T04:23:27;101922.00;;;7.12;70.33
4705;BME280;2366;51.332;6.610;2024-02-28T04:25:53;101916.59;;;7.17;69.77
4705;BME280;2366;51.332;6.610;2024-02-28T04:28:19;101920.97;;;7.18;70.60
4705;BME280;2366;51.332;6.610;2024-02-28T04:30:44;101925.97;;;7.27;69.69
4705;BME280;2366;51.332;6.610;2024-02-28T04:33:09;101933.06;;;7.25;70.60
4705;BME280;2366;51.332;6.610;2024-02-28T04:35:35;101925.03;;;7.30;69.61
4705;BME280;2366;51.332;6.610;2024-02-28T04:38:00;101933.19;;;7.20;69.94
4705;BME280;2366;51.332;6.610;2024-02-28T04:40:26;101930.47;;;7.24;69.84
4705;BME280;2366;51.332;6.610;2024-02-28T04:42:51;101930.41;;;7.27;70.28
4705;BME280;2366;51.332;6.610;2024-02-28T04:45:16;101935.84;;;7.20;70.26
4705;BME280;2366;51.332;6.610;2024-02-28T04:47:42;101942.50;;;7.34;69.98
4705;BME280;2366;51.332;6.610;2024-02-28T04:50:09;101935.38;;;7.37;70.53
4705;BME280;2366;51.332;6.610;2024-02-28T04:52:35;101938.19;;;7.31;70.15
4705;BME280;2366;51.332;6.610;2024-02-28T04:55:00;101938.84;;;7.39;69.98
4705;BME280;2366;51.332;6.610;2024-02-28T04:57:26;101938.72;;;7.43;70.38
4705;BME280;2366;51.332;6.610;2024-02-28T04:59:52;101942.16;;;7.46;70.33
4705;BME280;2366;51.332;6.610;2024-02-28T05:02:17;101938.00;;;7.37;69.96
4705;BME280;2366;51.332;6.610;2024-02-28T05:04:43;101937.25;;;7.32;70.42
4705;BME280;2366;51.332;6.610;2024-02-28T05:07:08;101943.94;;;7.13;70.72
4705;BME280;2366;51.332;6.610;2024-02-28T05:09:34;101946.13;;;7.30;70.73
4705;BME280;2366;51.332;6.610;2024-02-28T05:12:00;101948.72;;;7.31;70.74
4705;BME280;2366;51.332;6.610;2024-02-28T05:14:26;101937.22;;;7.34;70.54
4705;BME280;2366;51.332;6.610;2024-02-28T05:16:51;101948.47;;;7.40;70.72
4705;BME280;2366;51.332;6.610;2024-02-28T05:19:16;101950.97;;;7.45;70.79
4705;BME280;2366;51.332;6.610;2024-02-28T05:21:43;101951.75;;;7.49;70.83
4705;BME280;2366;51.332;6.610;2024-02-28T05:24:09;101950.38;;;7.35;70.95
4705;BME280;2366;51.332;6.610;2024-02-28T05:26:35;101953.56;;;7.47;70.74
4705;BME280;2366;51.332;6.610;2024-02-28T05:29:02;101963.03;;;7.54;71.02
4705;BME280;2366;51.332;6.610;2024-02-28T05:31:28;101965.38;;;7.33;71.37
4705;BME280;2366;51.332;6.610;2024-02-28T05:33:55;101980.63;;;7.55;70.94
4705;BME280;2366;51.332;6.610;2024-02-28T05:36:22;101976.84;;;7.32;70.73
4705;BME280;2366;51.332;6.610;2024-02-28T05:38:48;101978.81;;;7.24;70.68
4705;BME280;2366;51.332;6.610;2024-02-28T05:41:13;101988.09;;;7.06;71.41
4705;BME280;2366;51.332;6.610;2024-02-28T05:43:41;101988.47;;;7.25;71.71
4705;BME280;2366;51.332;6.610;2024-02-28T05:46:06;101988.19;;;7.36;70.57
4705;BME280;2366;51.332;6.610;2024-02-28T05:48:32;101993.59;;;7.31;70.73
4705;BME280;2366;51.332;6.610;2024-02-28T05:50:57;101983.59;;;7.43;70.61
4705;BME280;2366;51.332;6.610;2024-02-28T05:53:22;101990.09;;;7.31;69.88
4705;BME280;2366;51.332;6.610;2024-02-28T05:55:52;101994.41;;;7.33;70.66
4705;BME280;2366;51.332;6.610;2024-02-28T05:58:19;101991.53;;;7.10;71.28
4705;BME280;2366;51.332;6.610;2024-02-28T06:00:44;102001.22;;;7.09;71.14
4705;BME280;2366;51.332;6.610;2024-02-28T06:03:10;102002.53;;;7.26;70.67
4705;BME280;2366;51.332;6.610;2024-02-28T06:05:35;102012.00;;;7.33;70.29
4705;BME280;2366;51.332;6.610;2024-02-28T06:08:00;102002.78;;;7.48;70.74
4705;BME280;2366;51.332;6.610;2024-02-28T06:10:26;102005.72;;;7.37;70.41
4705;BME280;2366;51.332;6.610;2024-02-28T06:12:51;102012.66;;;7.41;70.31
4705;BME280;2366;51.332;6.610;2024-02-28T06:15:17;102010.84;;;7.43;70.49
4705;BME280;2366;51.332;6.610;2024-02-28T06:17:42;102015.09;;;7.49;70.19
4705;BME280;2366;51.332;6.610;2024-02-28T06:20:08;102022.03;;;7.53;70.40
4705;BME280;2366;51.332;6.610;2024-02-28T06:22:33;102031.38;;;7.63;70.28
4705;BME280;2366;51.332;6.610;2024-02-28T06:24:58;102025.09;;;7.69;69.96
4705;BME280;2366;51.332;6.610;2024-02-28T06:27:24;102023.13;;;7.75;69.60
4705;BME280;2366;51.332;6.610;2024-02-28T06:29:51;102024.88;;;7.76;69.46
4705;BME280;2366;51.332;6.610;2024-02-28T06:34:44;102025.81;;;7.74;68.46
4705;BME280;2366;51.332;6.610;2024-02-28T06:37:10;102025.09;;;7.69;69.31
4705;BME280;2366;51.332;6.610;2024-02-28T06:39:35;102027.75;;;7.67;70.03
4705;BME280;2366;51.332;6.610;2024-02-28T06:42:00;102041.06;;;7.64;70.12
4705;BME280;2366;51.332;6.610;2024-02-28T06:44:26;102049.88;;;7.63;70.09
4705;BME280;2366;51.332;6.610;2024-02-28T06:46:51;102043.47;;;7.72;70.28
4705;BME280;2366;51.332;6.610;2024-02-28T06:49:17;102044.28;;;7.74;70.48
4705;BME280;2366;51.332;6.610;2024-02-28T06:51:45;102043.09;;;7.86;70.46
4705;BME280;2366;51.332;6.610;2024-02-28T06:54:11;102055.16;;;7.94;70.11
4705;BME280;2366;51.332;6.610;2024-02-28T06:56:36;102052.03;;;7.80;70.42
4705;BME280;2366;51.332;6.610;2024-02-28T06:59:02;102051.19;;;7.79;70.17
4705;BME280;2366;51.332;6.610;2024-02-28T07:01:29;102046.69;;;7.83;70.37
4705;BME280;2366;51.332;6.610;2024-02-28T07:03:54;102053.25;;;7.99;70.18
4705;BME280;2366;51.332;6.610;2024-02-28T07:06:22;102068.34;;;7.96;69.98
4705;BME280;2366;51.332;6.610;2024-02-28T07:08:48;102057.56;;;8.02;69.81
4705;BME280;2366;51.332;6.610;2024-02-28T07:11:14;102056.50;;;8.09;70.07
4705;BME280;2366;51.332;6.610;2024-02-28T07:13:40;102061.66;;;8.12;69.97
4705;BME280;2366;51.332;6.610;2024-02-28T07:16:06;102069.38;;;8.20;69.83
4705;BME280;2366;51.332;6.610;2024-02-28T07:18:31;102067.50;;;8.23;69.97
4705;BME280;2366;51.332;6.610;2024-02-28T07:20:57;102067.25;;;8.33;69.73
4705;BME280;2366;51.332;6.610;2024-02-28T07:23:22;102070.53;;;8.41;69.56
4705;BME280;2366;51.332;6.610;2024-02-28T07:25:48;102068.66;;;8.45;70.11
4705;BME280;2366;51.332;6.610;2024-02-28T07:28:13;102074.38;;;8.59;69.70
4705;BME280;2366;51.332;6.610;2024-02-28T07:30:39;102075.09;;;8.64;69.76
4705;BME280;2366;51.332;6.610;2024-02-28T07:33:07;102069.00;;;8.62;69.40
4705;BME280;2366;51.332;6.610;2024-02-28T07:35:32;102071.88;;;8.54;69.72
4705;BME280;2366;51.332;6.610;2024-02-28T07:38:08;102073.31;;;8.64;69.33
4705;BME280;2366;51.332;6.610;2024-02-28T07:40:34;102079.41;;;8.67;69.71
4705;BME280;2366;51.332;6.610;2024-02-28T07:42:59;102075.47;;;8.80;69.28
4705;BME280;2366;51.332;6.610;2024-02-28T07:45:24;102077.91;;;8.86;69.00
4705;BME280;2366;51.332;6.610;2024-02-28T07:47:50;102081.00;;;8.72;68.96
4705;BME280;2366;51.332;6.610;2024-02-28T07:50:15;102083.59;;;8.74;69.33
4705;BME280;2366;51.332;6.610;2024-02-28T07:52:41;102094.66;;;9.13;68.38
4705;BME280;2366;51.332;6.610;2024-02-28T07:55:07;102084.63;;;8.96;68.11
4705;BME280;2366;51.332;6.610;2024-02-28T07:57:32;102087.75;;;9.09;68.37
4705;BME280;2366;51.332;6.610;2024-02-28T07:59:58;102082.31;;;9.39;67.46
4705;BME280;2366;51.332;6.610;2024-02-28T08:02:23;102093.25;;;9.55;67.33
4705;BME280;2366;51.332;6.610;2024-02-28T08:04:49;102092.56;;;9.73;67.32
4705;BME280;2366;51.332;6.610;2024-02-28T08:07:16;102093.22;;;9.80;66.52
4705;BME280;2366;51.332;6.610;2024-02-28T08:09:41;102084.81;;;9.43;67.60
4705;BME280;2366;51.332;6.610;2024-02-28T08:12:07;102093.28;;;9.78;66.78
4705;BME280;2366;51.332;6.610;2024-02-28T08:14:32;102087.81;;;9.83;66.46
4705;BME280;2366;51.332;6.610;2024-02-28T08:16:57;102092.78;;;9.67;66.38
4705;BME280;2366;51.332;6.610;2024-02-28T08:19:23;102096.75;;;9.80;66.10
4705;BME280;2366;51.332;6.610;2024-02-28T08:21:48;102096.59;;;9.60;66.65
4705;BME280;2366;51.332;6.610;2024-02-28T08:24:14;102102.38;;;9.95;65.91
4705;BME280;2366;51.332;6.610;2024-02-28T08:26:40;102112.31;;;10.13;65.43
4705;BME280;2366;51.332;6.610;2024-02-28T08:29:06;102102.84;;;10.31;65.00
4705;BME280;2366;51.332;6.610;2024-02-28T08:31:31;102095.03;;;10.26;63.94
4705;BME280;2366;51.332;6.610;2024-02-28T08:33:57;102096.88;;;10.48;64.76
4705;BME280;2366;51.332;6.610;2024-02-28T08:36:22;102101.16;;;10.52;63.54
4705;BME280;2366;51.332;6.610;2024-02-28T08:38:47;102108.47;;;10.45;64.73
4705;BME280;2366;51.332;6.610;2024-02-28T08:41:13;102110.09;;;10.50;64.69
4705;BME280;2366;51.332;6.610;2024-02-28T08:43:39;102116.47;;;10.67;64.54
4705;BME280;2366;51.332;6.610;2024-02-28T08:46:05;102120.41;;;10.34;63.13
4705;BME280;2366;51.332;6.610;2024-02-28T08:48:32;102120.41;;;10.34;64.20
4705;BME280;2366;51.332;6.610;2024-02-28T08:50:57;102125.09;;;10.73;63.24
4705;BME280;2366;51.332;6.610;2024-02-28T08:53:23;102126.88;;;10.50;63.17
4705;BME280;2366;51.332;6.610;2024-02-28T08:55:48;102123.03;;;10.57;62.92
4705;BME280;2366;51.332;6.610;2024-02-28T08:58:14;102136.97;;;10.62;62.76
4705;BME280;2366;51.332;6.610;2024-02-28T09:00:39;102133.47;;;10.62;62.79
4705;BME280;2366;51.332;6.610;2024-02-28T09:03:05;102135.41;;;10.35;63.03
4705;BME280;2366;51.332;6.610;2024-02-28T09:05:30;102132.16;;;10.26;63.57
4705;BME280;2366;51.332;6.610;2024-02-28T09:07:56;102124.63;;;10.39;63.31
4705;BME280;2366;51.332;6.610;2024-02-28T09:10:22;102129.97;;;10.61;62.96
4705;BME280;2366;51.332;6.610;2024-02-28T09:12:50;102135.84;;;10.92;62.72
4705;BME280;2366;51.332;6.610;2024-02-28T09:15:15;102132.81;;;11.01;62.34
4705;BME280;2366;51.332;6.610;2024-02-28T09:17:40;102136.31;;;11.23;61.76
4705;BME280;2366;51.332;6.610;2024-02-28T09:20:06;102139.75;;;11.03;61.08
4705;BME280;2366;51.332;6.610;2024-02-28T09:22:33;102137.25;;;10.56;61.52
4705;BME280;2366;51.332;6.610;2024-02-28T09:24:58;102132.78;;;10.57;62.53
4705;BME280;2366;51.332;6.610;2024-02-28T09:27:23;102138.16;;;11.21;61.53
4705;BME280;2366;51.332;6.610;2024-02-28T09:29:50;102135.72;;;11.37;59.53
4705;BME280;2366;51.332;6.610;2024-02-28T09:32:15;102142.59;;;11.43;60.16
4705;BME280;2366;51.332;6.610;2024-02-28T09:34:41;102134.28;;;10.64;61.40
4705;BME280;2366;51.332;6.610;2024-02-28T09:37:07;102132.81;;;10.79;61.31
4705;BME280;2366;51.332;6.610;2024-02-28T09:39:32;102133.97;;;10.50;61.41
4705;BME280;2366;51.332;6.610;2024-02-28T09:41:57;102132.50;;;10.86;61.45
4705;BME280;2366;51.332;6.610;2024-02-28T09:44:23;102122.94;;;11.04;60.80
4705;BME280;2366;51.332;6.610;2024-02-28T09:46:52;102126.56;;;11.44;59.91
4705;BME280;2366;51.332;6.610;2024-02-28T09:49:18;102114.53;;;11.36;59.00
4705;BME280;2366;51.332;6.610;2024-02-28T09:51:44;102122.03;;;11.46;60.21
4705;BME280;2366;51.332;6.610;2024-02-28T09:54:13;102111.75;;;11.59;58.31
4705;BME280;2366;51.332;6.610;2024-02-28T09:56:40;102105.88;;;11.10;59.34
4705;BME280;2366;51.332;6.610;2024-02-28T09:59:06;102103.06;;;11.56;59.33
4705;BME280;2366;51.332;6.610;2024-02-28T10:01:37;102114.47;;;11.99;58.28
4705;BME280;2366;51.332;6.610;2024-02-28T10:04:06;102117.50;;;12.10;57.75
4705;BME280;2366;51.332;6.610;2024-02-28T10:06:32;102107.94;;;11.85;58.34
4705;BME280;2366;51.332;6.610;2024-02-28T10:08:57;102109.44;;;11.72;58.22
4705;BME280;2366;51.332;6.610;2024-02-28T10:11:24;102118.06;;;11.77;57.92
4705;BME280;2366;51.332;6.610;2024-02-28T10:13:50;102122.03;;;11.87;58.02
4705;BME280;2366;51.332;6.610;2024-02-28T10:16:17;102128.97;;;11.71;57.84
4705;BME280;2366;51.332;6.610;2024-02-28T10:18:43;102123.84;;;11.66;57.81
4705;BME280;2366;51.332;6.610;2024-02-28T10:21:09;102124.84;;;11.43;58.37
4705;BME280;2366;51.332;6.610;2024-02-28T10:23:36;102118.88;;;11.59;57.52
4705;BME280;2366;51.332;6.610;2024-02-28T10:26:02;102124.66;;;11.05;58.70
4705;BME280;2366;51.332;6.610;2024-02-28T10:28:27;102127.38;;;10.82;60.17
4705;BME280;2366;51.332;6.610;2024-02-28T10:30:53;102127.09;;;11.32;58.52
4705;BME280;2366;51.332;6.610;2024-02-28T10:33:19;102116.47;;;11.52;58.59
4705;BME280;2366;51.332;6.610;2024-02-28T10:35:45;102132.81;;;12.05;58.21
4705;BME280;2366;51.332;6.610;2024-02-28T10:38:11;102136.41;;;12.23;57.51
4705;BME280;2366;51.332;6.610;2024-02-28T10:40:39;102132.72;;;11.86;57.58
4705;BME280;2366;51.332;6.610;2024-02-28T10:43:05;102144.16;;;12.08;57.07
4705;BME280;2366;51.332;6.610;2024-02-28T10:45:34;102154.41;;;12.37;56.94
4705;BME280;2366;51.332;6.610;2024-02-28T10:48:01;102156.78;;;11.62;57.14
4705;BME280;2366;51.332;6.610;2024-02-28T10:50:27;102152.09;;;11.69;57.77
4705;BME280;2366;51.332;6.610;2024-02-28T10:52:53;102157.19;;;11.74;57.07
4705;BME280;2366;51.332;6.610;2024-02-28T10:55:21;102153.81;;;11.90;56.62
4705;BME280;2366;51.332;6.610;2024-02-28T10:58:02;102156.06;;;11.79;57.66
4705;BME280;2366;51.332;6.610;2024-02-28T11:00:29;102150.28;;;12.29;56.59
4705;BME280;2366;51.332;6.610;2024-02-28T11:02:57;102152.91;;;11.28;58.57
4705;BME280;2366;51.332;6.610;2024-02-28T11:05:23;102153.34;;;11.60;58.28
4705;BME280;2366;51.332;6.610;2024-02-28T11:07:51;102150.94;;;12.16;56.88
4705;BME280;2366;51.332;6.610;2024-02-28T11:10:17;102143.41;;;12.25;56.29
4705;BME280;2366;51.332;6.610;2024-02-28T11:12:43;102144.47;;;12.21;56.19
4705;BME280;2366;51.332;6.610;2024-02-28T11:15:16;102140.63;;;12.47;56.07
4705;BME280;2366;51.332;6.610;2024-02-28T11:17:42;102142.59;;;12.80;55.42
4705;BME280;2366;51.332;6.610;2024-02-28T11:20:13;102144.47;;;12.97;54.77
4705;BME280;2366;51.332;6.610;2024-02-28T11:22:39;102141.66;;;13.18;54.74
4705;BME280;2366;51.332;6.610;2024-02-28T11:25:05;102137.94;;;13.56;53.86
4705;BME280;2366;51.332;6.610;2024-02-28T11:27:31;102131.22;;;13.67;53.13
4705;BME280;2366;51.332;6.610;2024-02-28T11:29:57;102127.91;;;12.90;53.96
4705;BME280;2366;51.332;6.610;2024-02-28T11:32:24;102128.09;;;13.22;53.90
4705;BME280;2366;51.332;6.610;2024-02-28T11:34:50;102120.88;;;13.43;53.85
4705;BME280;2366;51.332;6.610;2024-02-28T11:37:18;102124.22;;;13.82;53.12
4705;BME280;2366;51.332;6.610;2024-02-28T11:39:49;102120.88;;;13.94;52.40
4705;BME280;2366;51.332;6.610;2024-02-28T11:42:16;102107.50;;;13.78;52.07
4705;BME280;2366;51.332;6.610;2024-02-28T11:44:42;102107.34;;;13.81;52.81
4705;BME280;2366;51.332;6.610;2024-02-28T11:47:11;102105.06;;;13.91;53.10
4705;BME280;2366;51.332;6.610;2024-02-28T11:49:37;102098.06;;;14.22;51.66
4705;BME280;2366;51.332;6.610;2024-02-28T11:52:04;102089.66;;;14.29;51.04
4705;BME280;2366;51.332;6.610;2024-02-28T11:54:30;102098.44;;;13.65;51.60
4705;BME280;2366;51.332;6.610;2024-02-28T11:56:55;102097.72;;;13.61;52.59
4705;BME280;2366;51.332;6.610;2024-02-28T11:59:21;102094.94;;;13.97;52.22
4705;BME280;2366;51.332;6.610;2024-02-28T12:01:46;102094.75;;;14.01;51.86
4705;BME280;2366;51.332;6.610;2024-02-28T12:04:12;102090.53;;;13.63;52.44
4705;BME280;2366;51.332;6.610;2024-02-28T12:06:39;102086.19;;;12.91;54.82
4705;BME280;2366;51.332;6.610;2024-02-28T12:09:06;102091.41;;;13.46;53.58
4705;BME280;2366;51.332;6.610;2024-02-28T12:11:34;102090.91;;;14.06;53.11
4705;BME280;2366;51.332;6.610;2024-02-28T12:14:03;102086.53;;;14.21;51.49
4705;BME280;2366;51.332;6.610;2024-02-28T12:16:30;102086.53;;;14.21;51.68
4705;BME280;2366;51.332;6.610;2024-02-28T12:18:55;102077.34;;;14.43;51.62
4705;BME280;2366;51.332;6.610;2024-02-28T12:21:21;102073.28;;;14.51;50.74
4705;BME280;2366;51.332;6.610;2024-02-28T12:23:47;102072.28;;;14.38;51.53
4705;BME280;2366;51.332;6.610;2024-02-28T12:26:16;102070.34;;;13.92;52.41
4705;BME280;2366;51.332;6.610;2024-02-28T12:28:43;102060.97;;;14.33;52.26
4705;BME280;2366;51.332;6.610;2024-02-28T12:31:08;102056.41;;;14.35;51.42
4705;BME280;2366;51.332;6.610;2024-02-28T12:33:37;102054.44;;;14.38;51.36
4705;BME280;2366;51.332;6.610;2024-02-28T12:36:02;102052.09;;;14.80;50.99
4705;BME280;2366;51.332;6.610;2024-02-28T12:38:29;102049.50;;;14.94;50.61
4705;BME280;2366;51.332;6.610;2024-02-28T12:40:54;102043.50;;;14.43;51.17
4705;BME280;2366;51.332;6.610;2024-02-28T12:43:20;102039.97;;;14.74;50.61
4705;BME280;2366;51.332;6.610;2024-02-28T12:45:45;102039.66;;;14.95;50.19
4705;BME280;2366;51.332;6.610;2024-02-28T12:48:11;102033.53;;;15.23;49.48
4705;BME280;2366;51.332;6.610;2024-02-28T12:50:36;102026.91;;;15.00;49.97
4705;BME280;2366;51.332;6.610;2024-02-28T12:53:02;102019.25;;;14.94;49.69
4705;BME280;2366;51.332;6.610;2024-02-28T12:55:28;102021.47;;;15.02;49.89
4705;BME280;2366;51.332;6.610;2024-02-28T12:57:54;102018.56;;;15.20;49.57
4705;BME280;2366;51.332;6.610;2024-02-28T13:00:20;102023.66;;;15.09;49.31
4705;BME280;2366;51.332;6.610;2024-02-28T13:02:46;102017.84;;;14.72;50.47
4705;BME280;2366;51.332;6.610;2024-02-28T13:05:12;102013.59;;;15.14;50.03
4705;BME280;2366;51.332;6.610;2024-02-28T13:07:40;102011.16;;;14.49;50.47
4705;BME280;2366;51.332;6.610;2024-02-28T13:10:07;102008.69;;;14.92;50.29
4705;BME280;2366;51.332;6.610;2024-02-28T13:12:34;102008.69;;;14.92;49.35